sensor_id;sensor_type;location;lat;lon;timestamp;P1;durP1;ratioP1;P2;durP2;ratioP2
6513;SDS011;3290;47.716;9.070;2023-04-24T00:01:26;1.30;;;1.20;;
6513;SDS011;3290;47.716;9.070;2023-04-24T00:03:51;1.10;;;1.00;;
6513;SDS011;3290;47.716;9.070;2023-04-24T00:06:17;1.30;;;1.17;;
6513;SDS011;3290;47.716;9.070;2023-04-24T00:08:42;2.73;;;1.23;;
6513;SDS011;3290;47.716;9.070;2023-04-24T00:11:08;2.50;;;1.10;;
6513;SDS011;3290;47.716;9.070;2023-04-24T00:13:34;1.30;;;1.20;;
6513;SDS011;3290;47.716;9.070;2023-04-24T00:16:00;2.63;;;1.13;;
6513;SDS011;3290;47.716;9.070;2023-04-24T00:18:25;1.77;;;1.13;;
6513;SDS011;3290;47.716;9.070;2023-04-24T00:20:51;1.50;;;1.20;;
6513;SDS011;3290;47.716;9.070;2023-04-24T00:23:16;2.50;;;1.30;;
6513;SDS011;3290;47.716;9.070;2023-04-24T00:25:41;2.77;;;1.50;;
6513;SDS011;3290;47.716;9.070;2023-04-24T00:28:07;2.50;;;1.23;;
6513;SDS011;3290;47.716;9.070;2023-04-24T00:30:32;1.60;;;1.30;;
6513;SDS011;3290;47.716;9.070;2023-04-24T00:32:57;2.60;;;0.90;;
6513;SDS011;3290;47.716;9.070;2023-04-24T00:35:23;1.73;;;1.00;;
6513;SDS011;3290;47.716;9.070;2023-04-24T00:37:48;1.20;;;1.07;;
6513;SDS011;3290;47.716;9.070;2023-04-24T00:40:14;1.67;;;1.00;;
6513;SDS011;3290;47.716;9.070;2023-04-24T00:42:40;3.10;;;1.20;;
6513;SDS011;3290;47.716;9.070;2023-04-24T00:45:05;1.63;;;1.20;;
6513;SDS011;3290;47.716;9.070;2023-04-24T00:47:32;4.27;;;1.50;;
6513;SDS011;3290;47.716;9.070;2023-04-24T00:49:58;1.53;;;1.07;;
6513;SDS011;3290;47.716;9.070;2023-04-24T00:52:23;2.20;;;1.37;;
6513;SDS011;3290;47.716;9.070;2023-04-24T00:54:49;1.37;;;1.27;;
6513;SDS011;3290;47.716;9.070;2023-04-24T00:57:15;2.80;;;1.70;;
6513;SDS011;3290;47.716;9.070;2023-04-24T00:59:41;2.00;;;1.37;;
6513;SDS011;3290;47.716;9.070;2023-04-24T01:02:07;1.73;;;1.40;;
6513;SDS011;3290;47.716;9.070;2023-04-24T01:04:34;1.47;;;1.17;;
6513;SDS011;3290;47.716;9.070;2023-04-24T01:06:59;8.07;;;1.33;;
6513;SDS011;3290;47.716;9.070;2023-04-24T01:09:25;2.70;;;1.67;;
6513;SDS011;3290;47.716;9.070;2023-04-24T01:11:50;1.40;;;1.30;;
6513;SDS011;3290;47.716;9.070;2023-04-24T01:14:16;1.20;;;1.10;;
6513;SDS011;3290;47.716;9.070;2023-04-24T01:16:41;1.20;;;1.10;;
6513;SDS011;3290;47.716;9.070;2023-04-24T01:19:07;1.20;;;1.10;;
6513;SDS011;3290;47.716;9.070;2023-04-24T01:21:34;8.23;;;1.20;;
6513;SDS011;3290;47.716;9.070;2023-04-24T01:24:01;3.43;;;1.20;;
6513;SDS011;3290;47.716;9.070;2023-04-24T01:26:27;2.03;;;1.13;;
6513;SDS011;3290;47.716;9.070;2023-04-24T01:28:52;1.73;;;1.07;;
6513;SDS011;3290;47.716;9.070;2023-04-24T01:31:18;1.00;;;0.90;;
6513;SDS011;3290;47.716;9.070;2023-04-24T01:33:44;2.50;;;1.00;;
6513;SDS011;3290;47.716;9.070;2023-04-24T01:36:10;5.43;;;0.90;;
6513;SDS011;3290;47.716;9.070;2023-04-24T01:38:36;1.97;;;1.00;;
6513;SDS011;3290;47.716;9.070;2023-04-24T01:41:02;1.20;;;0.90;;
6513;SDS011;3290;47.716;9.070;2023-04-24T01:43:28;0.70;;;0.70;;
6513;SDS011;3290;47.716;9.070;2023-04-24T01:45:54;1.13;;;0.80;;
6513;SDS011;3290;47.716;9.070;2023-04-24T01:48:19;0.83;;;0.80;;
6513;SDS011;3290;47.716;9.070;2023-04-24T01:50:45;1.13;;;0.90;;
6513;SDS011;3290;47.716;9.070;2023-04-24T01:53:10;0.80;;;0.80;;
6513;SDS011;3290;47.716;9.070;2023-04-24T01:55:36;0.90;;;0.73;;
6513;SDS011;3290;47.716;9.070;2023-04-24T01:58:01;1.53;;;1.03;;
6513;SDS011;3290;47.716;9.070;2023-04-24T02:00:27;1.83;;;0.90;;
6513;SDS011;3290;47.716;9.070;2023-04-24T02:02:52;0.90;;;0.90;;
6513;SDS011;3290;47.716;9.070;2023-04-24T02:05:18;0.80;;;0.80;;
6513;SDS011;3290;47.716;9.070;2023-04-24T02:07:43;1.30;;;0.80;;
6513;SDS011;3290;47.716;9.070;2023-04-24T02:10:09;0.90;;;0.80;;
6513;SDS011;3290;47.716;9.070;2023-04-24T02:12:35;0.70;;;0.70;;
6513;SDS011;3290;47.716;9.070;2023-04-24T02:15:00;1.00;;;0.70;;
6513;SDS011;3290;47.716;9.070;2023-04-24T02:17:26;1.73;;;0.90;;
6513;SDS011;3290;47.716;9.070;2023-04-24T02:19:51;0.80;;;0.80;;
6513;SDS011;3290;47.716;9.070;2023-04-24T02:22:17;1.70;;;0.93;;
6513;SDS011;3290;47.716;9.070;2023-04-24T02:24:42;1.00;;;0.80;;
6513;SDS011;3290;47.716;9.070;2023-04-24T02:27:07;2.40;;;0.97;;
6513;SDS011;3290;47.716;9.070;2023-04-24T02:29:33;1.00;;;0.83;;
6513;SDS011;3290;47.716;9.070;2023-04-24T02:31:58;0.70;;;0.70;;
6513;SDS011;3290;47.716;9.070;2023-04-24T02:34:23;0.90;;;0.77;;
6513;SDS011;3290;47.716;9.070;2023-04-24T02:36:49;1.10;;;0.90;;
6513;SDS011;3290;47.716;9.070;2023-04-24T02:39:15;0.80;;;0.80;;
6513;SDS011;3290;47.716;9.070;2023-04-24T02:41:43;1.73;;;0.77;;
6513;SDS011;3290;47.716;9.070;2023-04-24T02:44:09;4.10;;;0.60;;
6513;SDS011;3290;47.716;9.070;2023-04-24T02:46:34;0.83;;;0.77;;
6513;SDS011;3290;47.716;9.070;2023-04-24T02:49:00;0.80;;;0.70;;
6513;SDS011;3290;47.716;9.070;2023-04-24T02:51:25;0.90;;;0.77;;
6513;SDS011;3290;47.716;9.070;2023-04-24T02:53:51;0.93;;;0.83;;
6513;SDS011;3290;47.716;9.070;2023-04-24T02:56:17;1.10;;;0.80;;
6513;SDS011;3290;47.716;9.070;2023-04-24T02:58:42;2.13;;;0.90;;
6513;SDS011;3290;47.716;9.070;2023-04-24T03:01:08;1.00;;;0.97;;
6513;SDS011;3290;47.716;9.070;2023-04-24T03:03:34;2.10;;;1.00;;
6513;SDS011;3290;47.716;9.070;2023-04-24T03:06:00;3.17;;;1.03;;
6513;SDS011;3290;47.716;9.070;2023-04-24T03:08:26;1.10;;;0.77;;
6513;SDS011;3290;47.716;9.070;2023-04-24T03:10:51;0.73;;;0.73;;
6513;SDS011;3290;47.716;9.070;2023-04-24T03:13:17;1.20;;;0.80;;
6513;SDS011;3290;47.716;9.070;2023-04-24T03:15:42;1.57;;;0.90;;
6513;SDS011;3290;47.716;9.070;2023-04-24T03:18:08;0.80;;;0.70;;
6513;SDS011;3290;47.716;9.070;2023-04-24T03:20:33;1.03;;;0.70;;
6513;SDS011;3290;47.716;9.070;2023-04-24T03:22:58;0.93;;;0.83;;
6513;SDS011;3290;47.716;9.070;2023-04-24T03:25:24;1.20;;;0.70;;
6513;SDS011;3290;47.716;9.070;2023-04-24T03:27:50;0.80;;;0.80;;
6513;SDS011;3290;47.716;9.070;2023-04-24T03:30:15;0.90;;;0.70;;
6513;SDS011;3290;47.716;9.070;2023-04-24T03:32:40;0.80;;;0.80;;
6513;SDS011;3290;47.716;9.070;2023-04-24T03:35:06;4.63;;;0.70;;
6513;SDS011;3290;47.716;9.070;2023-04-24T03:37:36;1.57;;;0.80;;
6513;SDS011;3290;47.716;9.070;2023-04-24T03:40:01;1.17;;;0.90;;
6513;SDS011;3290;47.716;9.070;2023-04-24T03:42:27;0.80;;;0.80;;
6513;SDS011;3290;47.716;9.070;2023-04-24T03:44:52;0.80;;;0.77;;
6513;SDS011;3290;47.716;9.070;2023-04-24T03:47:18;0.83;;;0.77;;
6513;SDS011;3290;47.716;9.070;2023-04-24T03:49:43;0.80;;;0.70;;
6513;SDS011;3290;47.716;9.070;2023-04-24T03:52:08;0.70;;;0.70;;
6513;SDS011;3290;47.716;9.070;2023-04-24T03:54:34;0.70;;;0.60;;
6513;SDS011;3290;47.716;9.070;2023-04-24T03:57:00;0.70;;;0.60;;
6513;SDS011;3290;47.716;9.070;2023-04-24T03:59:26;0.80;;;0.70;;
6513;SDS011;3290;47.716;9.070;2023-04-24T04:01:51;0.87;;;0.83;;
6513;SDS011;3290;47.716;9.070;2023-04-24T04:04:17;1.10;;;0.70;;
6513;SDS011;3290;47.716;9.070;2023-04-24T04:06:42;0.70;;;0.63;;
6513;SDS011;3290;47.716;9.070;2023-04-24T04:09:09;0.70;;;0.70;;
6513;SDS011;3290;47.716;9.070;2023-04-24T04:11:34;0.70;;;0.60;;
6513;SDS011;3290;47.716;9.070;2023-04-24T04:14:00;0.70;;;0.60;;
6513;SDS011;3290;47.716;9.070;2023-04-24T04:16:25;1.10;;;0.63;;
6513;SDS011;3290;47.716;9.070;2023-04-24T04:18:51;0.80;;;0.60;;
6513;SDS011;3290;47.716;9.070;2023-04-24T04:21:16;0.70;;;0.60;;
6513;SDS011;3290;47.716;9.070;2023-04-24T04:23:41;1.30;;;0.80;;
6513;SDS011;3290;47.716;9.070;2023-04-24T04:26:07;0.80;;;0.70;;
6513;SDS011;3290;47.716;9.070;2023-04-24T04:28:33;0.70;;;0.60;;
6513;SDS011;3290;47.716;9.070;2023-04-24T04:30:58;0.70;;;0.70;;
6513;SDS011;3290;47.716;9.070;2023-04-24T04:33:24;0.77;;;0.70;;
6513;SDS011;3290;47.716;9.070;2023-04-24T04:35:50;0.70;;;0.60;;
6513;SDS011;3290;47.716;9.070;2023-04-24T04:38:17;1.53;;;0.90;;
6513;SDS011;3290;47.716;9.070;2023-04-24T04:40:43;0.70;;;0.60;;
6513;SDS011;3290;47.716;9.070;2023-04-24T04:43:09;0.90;;;0.70;;
6513;SDS011;3290;47.716;9.070;2023-04-24T04:45:36;0.97;;;0.60;;
6513;SDS011;3290;47.716;9.070;2023-04-24T04:48:03;0.80;;;0.70;;
6513;SDS011;3290;47.716;9.070;2023-04-24T04:50:29;0.90;;;0.73;;
6513;SDS011;3290;47.716;9.070;2023-04-24T04:52:55;0.93;;;0.67;;
6513;SDS011;3290;47.716;9.070;2023-04-24T04:55:20;2.00;;;0.80;;
6513;SDS011;3290;47.716;9.070;2023-04-24T04:57:46;0.90;;;0.70;;
6513;SDS011;3290;47.716;9.070;2023-04-24T05:00:11;0.80;;;0.70;;
6513;SDS011;3290;47.716;9.070;2023-04-24T05:02:37;0.70;;;0.63;;
6513;SDS011;3290;47.716;9.070;2023-04-24T05:05:03;0.80;;;0.70;;
6513;SDS011;3290;47.716;9.070;2023-04-24T05:07:29;3.03;;;0.80;;
6513;SDS011;3290;47.716;9.070;2023-04-24T05:09:54;2.60;;;0.83;;
6513;SDS011;3290;47.716;9.070;2023-04-24T05:12:20;0.70;;;0.60;;
6513;SDS011;3290;47.716;9.070;2023-04-24T05:14:45;0.70;;;0.70;;
6513;SDS011;3290;47.716;9.070;2023-04-24T05:17:10;2.23;;;0.73;;
6513;SDS011;3290;47.716;9.070;2023-04-24T05:19:36;1.13;;;0.80;;
6513;SDS011;3290;47.716;9.070;2023-04-24T05:22:03;3.13;;;0.87;;
6513;SDS011;3290;47.716;9.070;2023-04-24T05:24:31;2.00;;;0.90;;
6513;SDS011;3290;47.716;9.070;2023-04-24T05:26:57;0.70;;;0.60;;
6513;SDS011;3290;47.716;9.070;2023-04-24T05:29:23;0.80;;;0.70;;
6513;SDS011;3290;47.716;9.070;2023-04-24T05:31:49;1.00;;;0.70;;
6513;SDS011;3290;47.716;9.070;2023-04-24T05:34:14;0.87;;;0.70;;
6513;SDS011;3290;47.716;9.070;2023-04-24T05:36:41;0.90;;;0.70;;
6513;SDS011;3290;47.716;9.070;2023-04-24T05:39:07;2.30;;;0.87;;
6513;SDS011;3290;47.716;9.070;2023-04-24T05:41:33;0.70;;;0.60;;
6513;SDS011;3290;47.716;9.070;2023-04-24T05:43:59;1.00;;;0.80;;
6513;SDS011;3290;47.716;9.070;2023-04-24T05:46:24;1.77;;;0.90;;
6513;SDS011;3290;47.716;9.070;2023-04-24T05:48:50;0.80;;;0.73;;
6513;SDS011;3290;47.716;9.070;2023-04-24T05:51:15;1.00;;;0.80;;
6513;SDS011;3290;47.716;9.070;2023-04-24T05:53:40;1.10;;;0.80;;
6513;SDS011;3290;47.716;9.070;2023-04-24T05:56:05;0.90;;;0.70;;
6513;SDS011;3290;47.716;9.070;2023-04-24T05:58:31;1.10;;;1.00;;
6513;SDS011;3290;47.716;9.070;2023-04-24T06:00:56;3.67;;;0.90;;
6513;SDS011;3290;47.716;9.070;2023-04-24T06:03:23;1.00;;;0.90;;
6513;SDS011;3290;47.716;9.070;2023-04-24T06:05:49;0.83;;;0.73;;
6513;SDS011;3290;47.716;9.070;2023-04-24T06:08:18;1.83;;;1.00;;
6513;SDS011;3290;47.716;9.070;2023-04-24T06:10:44;1.47;;;1.00;;
6513;SDS011;3290;47.716;9.070;2023-04-24T06:13:10;0.80;;;0.80;;
6513;SDS011;3290;47.716;9.070;2023-04-24T06:15:36;1.10;;;1.00;;
6513;SDS011;3290;47.716;9.070;2023-04-24T06:18:01;1.73;;;1.00;;
6513;SDS011;3290;47.716;9.070;2023-04-24T06:20:27;2.00;;;1.60;;
6513;SDS011;3290;47.716;9.070;2023-04-24T06:22:53;1.90;;;1.20;;
6513;SDS011;3290;47.716;9.070;2023-04-24T06:25:18;1.50;;;1.00;;
6513;SDS011;3290;47.716;9.070;2023-04-24T06:27:44;2.60;;;1.10;;
6513;SDS011;3290;47.716;9.070;2023-04-24T06:30:09;1.73;;;1.00;;
6513;SDS011;3290;47.716;9.070;2023-04-24T06:32:36;2.20;;;1.20;;
6513;SDS011;3290;47.716;9.070;2023-04-24T06:35:01;1.27;;;1.17;;
6513;SDS011;3290;47.716;9.070;2023-04-24T06:37:26;2.30;;;1.13;;
6513;SDS011;3290;47.716;9.070;2023-04-24T06:39:52;2.60;;;1.80;;
6513;SDS011;3290;47.716;9.070;2023-04-24T06:42:17;1.40;;;1.10;;
6513;SDS011;3290;47.716;9.070;2023-04-24T06:44:45;2.33;;;1.43;;
6513;SDS011;3290;47.716;9.070;2023-04-24T06:47:10;2.40;;;1.40;;
6513;SDS011;3290;47.716;9.070;2023-04-24T06:49:37;2.40;;;1.40;;
6513;SDS011;3290;47.716;9.070;2023-04-24T06:52:03;2.97;;;1.30;;
6513;SDS011;3290;47.716;9.070;2023-04-24T06:54:29;2.50;;;1.20;;
6513;SDS011;3290;47.716;9.070;2023-04-24T06:56:55;1.20;;;1.10;;
6513;SDS011;3290;47.716;9.070;2023-04-24T06:59:22;1.40;;;1.27;;
6513;SDS011;3290;47.716;9.070;2023-04-24T07:01:50;5.70;;;1.50;;
6513;SDS011;3290;47.716;9.070;2023-04-24T07:04:16;1.53;;;1.43;;
6513;SDS011;3290;47.716;9.070;2023-04-24T07:06:42;2.03;;;1.60;;
6513;SDS011;3290;47.716;9.070;2023-04-24T07:09:08;1.50;;;1.40;;
6513;SDS011;3290;47.716;9.070;2023-04-24T07:11:34;2.80;;;1.50;;
6513;SDS011;3290;47.716;9.070;2023-04-24T07:14:01;2.90;;;1.33;;
6513;SDS011;3290;47.716;9.070;2023-04-24T07:16:27;2.50;;;1.33;;
6513;SDS011;3290;47.716;9.070;2023-04-24T07:18:53;1.93;;;1.50;;
6513;SDS011;3290;47.716;9.070;2023-04-24T07:21:18;2.40;;;1.50;;
6513;SDS011;3290;47.716;9.070;2023-04-24T07:23:43;1.70;;;1.30;;
6513;SDS011;3290;47.716;9.070;2023-04-24T07:26:09;3.53;;;1.67;;
6513;SDS011;3290;47.716;9.070;2023-04-24T07:28:34;1.70;;;1.30;;
6513;SDS011;3290;47.716;9.070;2023-04-24T07:31:00;3.50;;;1.47;;
6513;SDS011;3290;47.716;9.070;2023-04-24T07:33:28;2.27;;;1.30;;
6513;SDS011;3290;47.716;9.070;2023-04-24T07:35:54;2.83;;;1.47;;
6513;SDS011;3290;47.716;9.070;2023-04-24T07:38:19;2.90;;;1.20;;
6513;SDS011;3290;47.716;9.070;2023-04-24T07:40:48;4.80;;;3.60;;
6513;SDS011;3290;47.716;9.070;2023-04-24T07:43:13;1.60;;;1.33;;
6513;SDS011;3290;47.716;9.070;2023-04-24T07:45:39;3.73;;;1.53;;
6513;SDS011;3290;47.716;9.070;2023-04-24T07:48:05;3.60;;;1.60;;
6513;SDS011;3290;47.716;9.070;2023-04-24T07:50:31;3.20;;;1.63;;
6513;SDS011;3290;47.716;9.070;2023-04-24T07:52:56;2.70;;;1.53;;
6513;SDS011;3290;47.716;9.070;2023-04-24T07:55:22;3.20;;;1.40;;
6513;SDS011;3290;47.716;9.070;2023-04-24T07:57:47;2.30;;;1.27;;
6513;SDS011;3290;47.716;9.070;2023-04-24T08:00:13;1.40;;;1.30;;
6513;SDS011;3290;47.716;9.070;2023-04-24T08:02:39;2.60;;;1.53;;
6513;SDS011;3290;47.716;9.070;2023-04-24T08:05:04;3.53;;;1.73;;
6513;SDS011;3290;47.716;9.070;2023-04-24T08:07:30;1.63;;;1.30;;
6513;SDS011;3290;47.716;9.070;2023-04-24T08:09:56;3.63;;;1.30;;
6513;SDS011;3290;47.716;9.070;2023-04-24T08:12:21;1.30;;;0.90;;
6513;SDS011;3290;47.716;9.070;2023-04-24T08:14:47;1.20;;;1.07;;
6513;SDS011;3290;47.716;9.070;2023-04-24T08:17:12;2.47;;;1.27;;
6513;SDS011;3290;47.716;9.070;2023-04-24T08:19:37;1.83;;;1.20;;
6513;SDS011;3290;47.716;9.070;2023-04-24T08:22:07;2.17;;;1.17;;
6513;SDS011;3290;47.716;9.070;2023-04-24T08:24:32;2.10;;;1.33;;
6513;SDS011;3290;47.716;9.070;2023-04-24T08:26:57;1.97;;;1.20;;
6513;SDS011;3290;47.716;9.070;2023-04-24T08:29:23;2.17;;;1.67;;
6513;SDS011;3290;47.716;9.070;2023-04-24T08:31:49;2.90;;;1.47;;
6513;SDS011;3290;47.716;9.070;2023-04-24T08:34:14;3.20;;;1.53;;
6513;SDS011;3290;47.716;9.070;2023-04-24T08:36:39;4.77;;;2.17;;
6513;SDS011;3290;47.716;9.070;2023-04-24T08:39:05;2.03;;;1.00;;
6513;SDS011;3290;47.716;9.070;2023-04-24T08:41:31;3.60;;;1.20;;
6513;SDS011;3290;47.716;9.070;2023-04-24T08:43:59;2.27;;;1.30;;
6513;SDS011;3290;47.716;9.070;2023-04-24T08:46:27;1.93;;;1.20;;
6513;SDS011;3290;47.716;9.070;2023-04-24T08:48:53;4.50;;;1.30;;
6513;SDS011;3290;47.716;9.070;2023-04-24T08:51:18;1.50;;;1.20;;
6513;SDS011;3290;47.716;9.070;2023-04-24T08:53:45;1.30;;;1.20;;
6513;SDS011;3290;47.716;9.070;2023-04-24T08:56:11;2.67;;;1.30;;
6513;SDS011;3290;47.716;9.070;2023-04-24T08:58:37;2.93;;;1.10;;
6513;SDS011;3290;47.716;9.070;2023-04-24T09:01:03;1.40;;;1.13;;
6513;SDS011;3290;47.716;9.070;2023-04-24T09:03:29;2.40;;;1.40;;
6513;SDS011;3290;47.716;9.070;2023-04-24T09:05:56;1.83;;;1.40;;
6513;SDS011;3290;47.716;9.070;2023-04-24T09:08:24;4.93;;;1.33;;
6513;SDS011;3290;47.716;9.070;2023-04-24T09:10:50;1.90;;;1.40;;
6513;SDS011;3290;47.716;9.070;2023-04-24T09:13:16;1.60;;;1.30;;
6513;SDS011;3290;47.716;9.070;2023-04-24T09:15:42;4.30;;;1.30;;
6513;SDS011;3290;47.716;9.070;2023-04-24T09:18:07;3.53;;;1.30;;
6513;SDS011;3290;47.716;9.070;2023-04-24T09:20:32;2.60;;;1.63;;
6513;SDS011;3290;47.716;9.070;2023-04-24T09:23:00;1.73;;;1.37;;
6513;SDS011;3290;47.716;9.070;2023-04-24T09:25:32;2.07;;;1.30;;
6513;SDS011;3290;47.716;9.070;2023-04-24T09:28:02;1.77;;;1.50;;
6513;SDS011;3290;47.716;9.070;2023-04-24T09:30:28;1.50;;;1.20;;
6513;SDS011;3290;47.716;9.070;2023-04-24T09:33:13;1.80;;;1.57;;
6513;SDS011;3290;47.716;9.070;2023-04-24T09:35:49;1.40;;;1.20;;
6513;SDS011;3290;47.716;9.070;2023-04-24T09:38:16;3.13;;;1.50;;
6513;SDS011;3290;47.716;9.070;2023-04-24T09:40:41;3.10;;;1.30;;
6513;SDS011;3290;47.716;9.070;2023-04-24T09:43:10;1.93;;;1.73;;
6513;SDS011;3290;47.716;9.070;2023-04-24T09:45:39;1.93;;;1.50;;
6513;SDS011;3290;47.716;9.070;2023-04-24T09:48:05;2.40;;;1.60;;
6513;SDS011;3290;47.716;9.070;2023-04-24T09:50:36;11.77;;;1.47;;
6513;SDS011;3290;47.716;9.070;2023-04-24T09:53:02;6.10;;;1.57;;
6513;SDS011;3290;47.716;9.070;2023-04-24T09:55:28;1.50;;;1.27;;
6513;SDS011;3290;47.716;9.070;2023-04-24T09:57:55;2.60;;;1.93;;
6513;SDS011;3290;47.716;9.070;2023-04-24T10:00:26;5.50;;;1.60;;
6513;SDS011;3290;47.716;9.070;2023-04-24T10:03:00;2.53;;;1.20;;
6513;SDS011;3290;47.716;9.070;2023-04-24T10:05:27;4.40;;;1.30;;
6513;SDS011;3290;47.716;9.070;2023-04-24T10:08:01;2.27;;;1.90;;
6513;SDS011;3290;47.716;9.070;2023-04-24T10:10:28;5.73;;;1.50;;
6513;SDS011;3290;47.716;9.070;2023-04-24T10:12:54;3.90;;;1.77;;
6513;SDS011;3290;47.716;9.070;2023-04-24T10:15:20;2.13;;;1.47;;
6513;SDS011;3290;47.716;9.070;2023-04-24T10:17:49;3.83;;;1.83;;
6513;SDS011;3290;47.716;9.070;2023-04-24T10:20:22;3.00;;;1.60;;
6513;SDS011;3290;47.716;9.070;2023-04-24T10:22:49;3.77;;;1.60;;
6513;SDS011;3290;47.716;9.070;2023-04-24T10:25:16;6.97;;;1.80;;
6513;SDS011;3290;47.716;9.070;2023-04-24T10:27:46;1.90;;;1.40;;
6513;SDS011;3290;47.716;9.070;2023-04-24T10:30:13;2.67;;;1.60;;
6513;SDS011;3290;47.716;9.070;2023-04-24T10:32:39;4.27;;;1.20;;
6513;SDS011;3290;47.716;9.070;2023-04-24T10:35:08;3.67;;;1.60;;
6513;SDS011;3290;47.716;9.070;2023-04-24T10:37:41;2.07;;;1.47;;
6513;SDS011;3290;47.716;9.070;2023-04-24T10:40:10;3.63;;;1.63;;
6513;SDS011;3290;47.716;9.070;2023-04-24T10:42:40;6.63;;;1.50;;
6513;SDS011;3290;47.716;9.070;2023-04-24T10:45:18;2.83;;;1.60;;
6513;SDS011;3290;47.716;9.070;2023-04-24T10:47:51;3.40;;;1.77;;
6513;SDS011;3290;47.716;9.070;2023-04-24T10:50:18;2.00;;;1.50;;
6513;SDS011;3290;47.716;9.070;2023-04-24T10:52:44;5.00;;;1.80;;
6513;SDS011;3290;47.716;9.070;2023-04-24T10:55:13;3.67;;;1.70;;
6513;SDS011;3290;47.716;9.070;2023-04-24T10:57:40;6.50;;;1.57;;
6513;SDS011;3290;47.716;9.070;2023-04-24T11:00:26;3.00;;;1.40;;
6513;SDS011;3290;47.716;9.070;2023-04-24T11:02:52;1.90;;;1.63;;
6513;SDS011;3290;47.716;9.070;2023-04-24T11:05:18;2.70;;;1.40;;
6513;SDS011;3290;47.716;9.070;2023-04-24T11:10:47;4.10;;;1.77;;
6513;SDS011;3290;47.716;9.070;2023-04-24T11:13:22;3.23;;;1.40;;
6513;SDS011;3290;47.716;9.070;2023-04-24T11:18:37;2.47;;;1.50;;
6513;SDS011;3290;47.716;9.070;2023-04-24T11:21:13;1.97;;;1.40;;
6513;SDS011;3290;47.716;9.070;2023-04-24T11:23:41;3.57;;;1.80;;
6513;SDS011;3290;47.716;9.070;2023-04-24T11:26:10;1.27;;;1.10;;
6513;SDS011;3290;47.716;9.070;2023-04-24T11:28:36;7.27;;;1.50;;
6513;SDS011;3290;47.716;9.070;2023-04-24T11:34:10;2.90;;;1.23;;
6513;SDS011;3290;47.716;9.070;2023-04-24T11:36:38;2.70;;;1.50;;
6513;SDS011;3290;47.716;9.070;2023-04-24T11:39:04;6.80;;;1.33;;
6513;SDS011;3290;47.716;9.070;2023-04-24T11:41:29;2.50;;;1.50;;
6513;SDS011;3290;47.716;9.070;2023-04-24T11:43:55;4.63;;;1.57;;
6513;SDS011;3290;47.716;9.070;2023-04-24T11:46:21;3.53;;;1.70;;
6513;SDS011;3290;47.716;9.070;2023-04-24T11:48:47;5.63;;;1.37;;
6513;SDS011;3290;47.716;9.070;2023-04-24T11:51:15;3.33;;;1.87;;
6513;SDS011;3290;47.716;9.070;2023-04-24T11:53:40;1.57;;;1.20;;
6513;SDS011;3290;47.716;9.070;2023-04-24T11:56:06;1.40;;;1.30;;
6513;SDS011;3290;47.716;9.070;2023-04-24T11:58:37;1.60;;;1.40;;
6513;SDS011;3290;47.716;9.070;2023-04-24T12:01:04;1.70;;;1.33;;
6513;SDS011;3290;47.716;9.070;2023-04-24T12:03:30;2.90;;;1.73;;
6513;SDS011;3290;47.716;9.070;2023-04-24T12:06:05;3.33;;;1.73;;
6513;SDS011;3290;47.716;9.070;2023-04-24T12:08:34;2.40;;;1.70;;
6513;SDS011;3290;47.716;9.070;2023-04-24T12:11:00;1.83;;;1.27;;
6513;SDS011;3290;47.716;9.070;2023-04-24T12:13:26;4.80;;;1.70;;
6513;SDS011;3290;47.716;9.070;2023-04-24T12:15:52;6.07;;;2.90;;
6513;SDS011;3290;47.716;9.070;2023-04-24T12:18:17;3.47;;;1.37;;
6513;SDS011;3290;47.716;9.070;2023-04-24T12:20:43;2.00;;;1.23;;
6513;SDS011;3290;47.716;9.070;2023-04-24T12:23:08;4.73;;;2.00;;
6513;SDS011;3290;47.716;9.070;2023-04-24T12:25:34;3.27;;;1.80;;
6513;SDS011;3290;47.716;9.070;2023-04-24T12:30:29;3.93;;;1.67;;
6513;SDS011;3290;47.716;9.070;2023-04-24T12:32:57;2.50;;;1.70;;
6513;SDS011;3290;47.716;9.070;2023-04-24T12:35:24;2.10;;;1.50;;
6513;SDS011;3290;47.716;9.070;2023-04-24T12:37:51;4.00;;;1.50;;
6513;SDS011;3290;47.716;9.070;2023-04-24T12:40:17;3.67;;;1.43;;
6513;SDS011;3290;47.716;9.070;2023-04-24T12:42:44;3.10;;;1.83;;
6513;SDS011;3290;47.716;9.070;2023-04-24T12:45:14;1.60;;;1.17;;
6513;SDS011;3290;47.716;9.070;2023-04-24T12:47:41;2.37;;;1.70;;
6513;SDS011;3290;47.716;9.070;2023-04-24T12:50:08;6.43;;;1.80;;
6513;SDS011;3290;47.716;9.070;2023-04-24T12:52:35;2.10;;;1.90;;
6513;SDS011;3290;47.716;9.070;2023-04-24T12:55:01;3.77;;;1.53;;
6513;SDS011;3290;47.716;9.070;2023-04-24T12:57:27;2.27;;;1.50;;
6513;SDS011;3290;47.716;9.070;2023-04-24T12:59:54;2.20;;;1.27;;
6513;SDS011;3290;47.716;9.070;2023-04-24T13:02:23;1.57;;;1.40;;
6513;SDS011;3290;47.716;9.070;2023-04-24T13:04:49;4.27;;;1.63;;
6513;SDS011;3290;47.716;9.070;2023-04-24T13:07:16;2.23;;;1.50;;
6513;SDS011;3290;47.716;9.070;2023-04-24T13:09:42;2.17;;;1.47;;
6513;SDS011;3290;47.716;9.070;2023-04-24T13:12:08;2.90;;;1.50;;
6513;SDS011;3290;47.716;9.070;2023-04-24T13:14:34;1.80;;;1.40;;
6513;SDS011;3290;47.716;9.070;2023-04-24T13:17:00;1.87;;;1.50;;
6513;SDS011;3290;47.716;9.070;2023-04-24T13:19:26;3.83;;;1.50;;
6513;SDS011;3290;47.716;9.070;2023-04-24T13:21:53;2.00;;;1.53;;
6513;SDS011;3290;47.716;9.070;2023-04-24T13:24:20;1.83;;;1.33;;
6513;SDS011;3290;47.716;9.070;2023-04-24T13:26:46;4.03;;;1.50;;
6513;SDS011;3290;47.716;9.070;2023-04-24T13:29:11;3.47;;;1.40;;
6513;SDS011;3290;47.716;9.070;2023-04-24T13:31:36;2.60;;;1.00;;
6513;SDS011;3290;47.716;9.070;2023-04-24T13:34:02;1.40;;;1.30;;
6513;SDS011;3290;47.716;9.070;2023-04-24T13:36:28;4.17;;;1.50;;
6513;SDS011;3290;47.716;9.070;2023-04-24T13:38:55;2.37;;;1.47;;
6513;SDS011;3290;47.716;9.070;2023-04-24T13:41:20;4.27;;;1.57;;
6513;SDS011;3290;47.716;9.070;2023-04-24T13:43:45;1.53;;;1.43;;
6513;SDS011;3290;47.716;9.070;2023-04-24T13:46:11;1.50;;;1.40;;
6513;SDS011;3290;47.716;9.070;2023-04-24T13:48:36;1.50;;;1.13;;
6513;SDS011;3290;47.716;9.070;2023-04-24T13:51:01;1.80;;;1.47;;
6513;SDS011;3290;47.716;9.070;2023-04-24T13:53:27;3.70;;;1.67;;
6513;SDS011;3290;47.716;9.070;2023-04-24T13:55:52;1.70;;;1.23;;
6513;SDS011;3290;47.716;9.070;2023-04-24T13:58:18;2.40;;;1.53;;
6513;SDS011;3290;47.716;9.070;2023-04-24T14:00:43;1.50;;;1.40;;
6513;SDS011;3290;47.716;9.070;2023-04-24T14:03:09;2.70;;;1.33;;
6513;SDS011;3290;47.716;9.070;2023-04-24T14:05:34;2.13;;;1.23;;
6513;SDS011;3290;47.716;9.070;2023-04-24T14:07:59;3.77;;;1.40;;
6513;SDS011;3290;47.716;9.070;2023-04-24T14:10:25;1.60;;;1.50;;
6513;SDS011;3290;47.716;9.070;2023-04-24T14:12:52;6.03;;;1.73;;
6513;SDS011;3290;47.716;9.070;2023-04-24T14:15:18;1.83;;;1.40;;
6513;SDS011;3290;47.716;9.070;2023-04-24T14:17:43;2.43;;;1.50;;
6513;SDS011;3290;47.716;9.070;2023-04-24T14:20:09;1.73;;;1.23;;
6513;SDS011;3290;47.716;9.070;2023-04-24T14:22:35;2.57;;;1.87;;
6513;SDS011;3290;47.716;9.070;2023-04-24T14:25:00;2.77;;;1.90;;
6513;SDS011;3290;47.716;9.070;2023-04-24T14:27:26;3.03;;;1.97;;
6513;SDS011;3290;47.716;9.070;2023-04-24T14:29:51;5.77;;;1.70;;
6513;SDS011;3290;47.716;9.070;2023-04-24T14:32:17;3.80;;;1.50;;
6513;SDS011;3290;47.716;9.070;2023-04-24T14:34:42;2.13;;;1.30;;
6513;SDS011;3290;47.716;9.070;2023-04-24T14:37:08;1.50;;;1.40;;
6513;SDS011;3290;47.716;9.070;2023-04-24T14:39:33;1.30;;;1.20;;
6513;SDS011;3290;47.716;9.070;2023-04-24T14:41:59;3.40;;;1.50;;
6513;SDS011;3290;47.716;9.070;2023-04-24T14:44:25;1.30;;;1.20;;
6513;SDS011;3290;47.716;9.070;2023-04-24T14:46:51;1.77;;;1.20;;
6513;SDS011;3290;47.716;9.070;2023-04-24T14:49:16;4.17;;;1.40;;
6513;SDS011;3290;47.716;9.070;2023-04-24T14:51:42;3.20;;;1.50;;
6513;SDS011;3290;47.716;9.070;2023-04-24T14:54:07;3.30;;;1.43;;
6513;SDS011;3290;47.716;9.070;2023-04-24T14:56:33;2.80;;;1.40;;
6513;SDS011;3290;47.716;9.070;2023-04-24T14:58:58;2.27;;;1.20;;
6513;SDS011;3290;47.716;9.070;2023-04-24T15:01:24;1.70;;;1.50;;
6513;SDS011;3290;47.716;9.070;2023-04-24T15:03:49;2.10;;;1.40;;
6513;SDS011;3290;47.716;9.070;2023-04-24T15:06:15;2.83;;;1.50;;
6513;SDS011;3290;47.716;9.070;2023-04-24T15:08:40;2.17;;;1.57;;
6513;SDS011;3290;47.716;9.070;2023-04-24T15:11:06;1.20;;;1.10;;
6513;SDS011;3290;47.716;9.070;2023-04-24T15:13:31;1.37;;;1.27;;
6513;SDS011;3290;47.716;9.070;2023-04-24T15:15:57;1.97;;;1.50;;
6513;SDS011;3290;47.716;9.070;2023-04-24T15:18:22;2.20;;;1.47;;
6513;SDS011;3290;47.716;9.070;2023-04-24T15:20:47;3.57;;;1.63;;